Time;durP1;ratioP1;P1;durP2;ratioP2;P2;SDS_P1;SDS_P2;PMS_P1;PMS_P2;Temp;Humidity;BMP_temperature;BMP_pressure;BME280_temperature;BME280_humidity;BME280_pressure;Samples;Min_cycle;Max_cycle;Signal;HPM_P1;HPM_P2
2023/10/11 00:00:45;;;;;;;10.40;5.93;;;24.20;60.60;;;;;;5033674;28;20494;-74
2023/10/11 00:03:16;;;;;;;8.30;6.03;;;24.10;60.60;;;;;;5031623;28;20483;-74
2023/10/11 00:05:45;;;;;;;8.30;5.63;;;24.20;60.70;;;;;;5028997;28;20448;-74
2023/10/11 00:08:16;;;;;;;8.70;6.20;;;24.20;60.70;;;;;;5032119;28;20414;-74
2023/10/11 00:10:47;;;;;;;10.73;5.33;;;24.10;60.60;;;;;;5025351;28;20510;-74
2023/10/11 00:13:17;;;;;;;7.10;5.83;;;24.10;60.60;;;;;;5029617;28;20509;-74
2023/10/11 00:15:48;;;;;;;11.17;5.63;;;24.10;60.50;;;;;;5027211;28;20812;-74
2023/10/11 00:18:19;;;;;;;8.10;5.87;;;24.10;60.60;;;;;;5029849;28;20422;-73
2023/10/11 00:20:50;;;;;;;7.07;5.20;;;24.10;60.50;;;;;;5016481;28;20532;-74
2023/10/11 00:23:21;;;;;;;7.83;5.60;;;24.10;60.60;;;;;;5023287;28;20475;-74
2023/10/11 00:25:51;;;;;;;5.70;5.07;;;24.10;60.60;;;;;;5036445;28;20486;-75
2023/10/11 00:28:23;;;;;;;7.90;5.93;;;24.10;60.60;;;;;;5027305;28;20417;-74
2023/10/11 00:30:55;;;;;;;7.77;5.83;;;24.10;60.50;;;;;;5023525;28;20477;-75
2023/10/11 00:33:23;;;;;;;8.40;5.40;;;24.10;60.60;;;;;;5024010;28;20435;-74
2023/10/11 00:36:05;;;;;;;8.47;5.50;;;24.10;60.60;;;;;;5034732;28;20417;-74
2023/10/11 00:38:46;;;;;;;7.17;5.33;;;24.10;60.60;;;;;;5022384;28;20418;-74
2023/10/11 00:41:17;;;;;;;6.00;5.00;;;24.00;60.50;;;;;;5026382;28;20462;-75
2023/10/11 00:43:51;;;;;;;10.23;5.17;;;24.00;60.50;;;;;;5032831;28;20446;-74
2023/10/11 00:46:22;;;;;;;8.10;5.10;;;24.00;60.50;;;;;;5032346;28;20790;-74
2023/10/11 00:48:53;;;;;;;6.50;5.00;;;24.00;60.50;;;;;;5025390;28;20425;-74
2023/10/11 00:51:23;;;;;;;6.80;5.63;;;24.00;60.50;;;;;;5026503;28;20450;-74
2023/10/11 00:53:52;;;;;;;5.63;4.80;;;24.00;60.50;;;;;;5029353;28;20503;-74
2023/10/11 00:56:21;;;;;;;16.40;5.33;;;24.00;60.50;;;;;;5034466;28;20517;-74
2023/10/11 00:58:51;;;;;;;9.77;5.03;;;24.00;60.40;;;;;;5031079;28;20522;-74
2023/10/11 01:01:22;;;;;;;6.90;5.33;;;24.00;60.50;;;;;;5032658;28;20453;-74
2023/10/11 01:03:51;;;;;;;7.00;5.33;;;24.00;60.50;;;;;;5028275;28;20450;-74
2023/10/11 01:06:25;;;;;;;7.63;5.40;;;24.00;60.50;;;;;;5024956;28;20440;-74
2023/10/11 01:08:53;;;;;;;8.90;5.27;;;23.90;60.40;;;;;;5023159;28;20420;-74
2023/10/11 01:11:21;;;;;;;10.83;5.13;;;23.90;60.40;;;;;;5032411;28;20486;-74
2023/10/11 01:13:51;;;;;;;6.67;4.80;;;23.90;60.40;;;;;;5028856;28;20438;-74
2023/10/11 01:16:24;;;;;;;5.90;4.97;;;24.00;60.50;;;;;;5030932;28;20518;-74
2023/10/11 01:18:52;;;;;;;6.70;5.30;;;24.00;60.50;;;;;;5030035;28;20418;-74
2023/10/11 01:21:21;;;;;;;7.87;5.60;;;23.90;60.30;;;;;;5034279;28;20530;-75
2023/10/11 01:23:49;;;;;;;6.13;5.00;;;23.90;60.40;;;;;;5025582;28;20458;-74
2023/10/11 01:26:17;;;;;;;4.80;4.30;;;23.90;60.40;;;;;;5027572;28;20496;-74
2023/10/11 01:28:47;;;;;;;5.97;5.23;;;23.90;60.40;;;;;;5025838;28;20418;-74
2023/10/11 01:31:16;;;;;;;8.60;4.80;;;23.90;60.20;;;;;;5025288;28;20428;-75
2023/10/11 01:33:49;;;;;;;7.93;4.40;;;23.90;60.40;;;;;;5026508;28;20467;-74
2023/10/11 01:36:21;;;;;;;6.20;5.07;;;23.90;60.40;;;;;;5033882;28;20436;-74
2023/10/11 01:38:50;;;;;;;7.93;5.40;;;23.90;60.40;;;;;;5025879;28;20501;-74
2023/10/11 01:41:20;;;;;;;7.27;5.20;;;23.90;60.40;;;;;;5031719;28;20455;-74
2023/10/11 01:43:49;;;;;;;6.87;5.27;;;23.90;60.50;;;;;;5029904;28;20475;-74
2023/10/11 01:46:24;;;;;;;7.03;5.03;;;23.90;60.40;;;;;;5018547;28;20456;-75
2023/10/11 01:48:52;;;;;;;7.60;5.30;;;23.90;60.40;;;;;;5033886;28;20427;-75
2023/10/11 01:51:26;;;;;;;7.53;5.07;;;23.90;60.40;;;;;;5024383;28;20470;-74
2023/10/11 01:53:57;;;;;;;6.70;5.10;;;23.90;60.40;;;;;;5028031;28;20482;-74
2023/10/11 01:56:25;;;;;;;7.73;5.23;;;23.90;60.30;;;;;;5029574;28;20422;-74
2023/10/11 01:58:56;;;;;;;7.67;4.93;;;23.90;60.40;;;;;;5021952;28;20418;-75
2023/10/11 02:01:26;;;;;;;7.20;5.30;;;23.80;60.30;;;;;;5028708;28;20498;-75
2023/10/11 02:03:58;;;;;;;8.03;5.13;;;23.90;60.40;;;;;;5033369;28;20471;-74
2023/10/11 02:06:31;;;;;;;7.87;5.70;;;23.90;60.30;;;;;;5023715;28;20450;-74
2023/10/11 02:09:02;;;;;;;5.50;4.80;;;23.80;60.30;;;;;;5026823;28;20422;-74
2023/10/11 02:11:30;;;;;;;9.63;5.30;;;23.80;60.30;;;;;;5025576;28;20455;-74
2023/10/11 02:13:59;;;;;;;7.30;4.93;;;23.80;60.30;;;;;;5027564;28;20860;-75
2023/10/11 02:16:28;;;;;;;6.27;4.90;;;23.80;60.30;;;;;;5021076;28;20443;-74
2023/10/11 02:18:59;;;;;;;6.70;4.57;;;23.80;60.30;;;;;;5027328;28;20512;-74
2023/10/11 02:21:29;;;;;;;6.97;5.10;;;23.80;60.30;;;;;;5028081;28;20523;-75
2023/10/11 02:23:57;;;;;;;7.70;5.30;;;23.80;60.30;;;;;;5032707;28;20482;-74
2023/10/11 02:26:49;;;;;;;5.57;4.77;;;23.80;60.30;;;;;;5025455;28;20393;-74
2023/10/11 02:29:21;;;;;;;6.40;4.83;;;23.80;60.30;;;;;;5023921;28;20431;-74
2023/10/11 02:31:51;;;;;;;5.20;4.60;;;23.80;60.30;;;;;;5026308;28;20410;-74
2023/10/11 02:34:19;;;;;;;5.33;4.67;;;23.80;60.30;;;;;;5031764;28;20550;-74
2023/10/11 02:36:56;;;;;;;7.40;5.10;;;23.80;60.30;;;;;;5024127;28;20507;-74
2023/10/11 02:39:31;;;;;;;5.10;4.60;;;23.80;60.30;;;;;;5032572;28;20474;-74
2023/10/11 02:42:05;;;;;;;6.83;5.13;;;23.80;60.30;;;;;;5022029;28;20522;-75
2023/10/11 02:44:39;;;;;;;6.90;4.87;;;23.80;60.30;;;;;;5031101;28;20476;-76
2023/10/11 02:47:09;;;;;;;6.77;5.10;;;23.70;60.20;;;;;;5023794;28;20443;-75
2023/10/11 02:49:38;;;;;;;5.67;4.57;;;23.70;60.20;;;;;;5020808;28;20446;-74
2023/10/11 02:52:09;;;;;;;5.57;4.43;;;23.70;60.30;;;;;;5026185;28;20443;-74
2023/10/11 02:54:39;;;;;;;5.50;4.63;;;23.70;60.20;;;;;;5020624;28;20464;-74
2023/10/11 02:57:18;;;;;;;8.67;4.43;;;23.70;60.30;;;;;;5020933;28;20461;-74
2023/10/11 02:59:50;;;;;;;12.30;5.50;;;23.70;60.30;;;;;;5029685;28;20458;-74
2023/10/11 03:02:21;;;;;;;5.90;4.73;;;23.70;60.30;;;;;;5014833;28;20418;-74
2023/10/11 03:04:51;;;;;;;7.57;5.00;;;23.70;60.30;;;;;;5027799;28;20510;-75
2023/10/11 03:07:22;;;;;;;10.40;5.20;;;23.70;60.20;;;;;;5015905;28;20965;-74
2023/10/11 03:09:51;;;;;;;5.27;4.50;;;23.70;60.20;;;;;;5027476;28;20448;-74
2023/10/11 03:12:30;;;;;;;6.40;4.80;;;23.70;60.20;;;;;;5020674;28;20419;-75
2023/10/11 03:15:06;;;;;;;5.97;5.03;;;23.70;60.20;;;;;;5022745;28;20433;-74
2023/10/11 03:17:40;;;;;;;7.57;5.90;;;23.70;60.30;;;;;;5031636;28;20451;-74
2023/10/11 03:20:24;;;;;;;8.30;6.13;;;23.70;60.30;;;;;;5016498;28;20515;-74
2023/10/11 03:22:52;;;;;;;6.50;5.70;;;23.70;60.30;;;;;;5023825;28;21051;-74
2023/10/11 03:25:21;;;;;;;8.10;6.90;;;23.70;60.30;;;;;;5022797;28;20525;-74
2023/10/11 03:27:51;;;;;;;11.83;7.40;;;23.70;60.30;;;;;;5024903;28;20543;-75
2023/10/11 03:30:23;;;;;;;12.70;7.73;;;23.60;60.10;;;;;;5029547;28;20456;-75
2023/10/11 03:32:52;;;;;;;10.70;7.27;;;23.60;60.20;;;;;;5020160;28;20438;-74
2023/10/11 03:35:20;;;;;;;9.37;7.87;;;23.60;60.20;;;;;;5026834;28;20446;-74
2023/10/11 03:37:58;;;;;;;11.97;8.10;;;23.60;60.30;;;;;;5023692;28;20448;-75
2023/10/11 03:40:35;;;;;;;11.17;7.60;;;23.60;60.30;;;;;;5028905;28;20447;-74
2023/10/11 03:43:12;;;;;;;13.20;8.23;;;23.60;60.40;;;;;;5023667;28;20969;-74
2023/10/11 03:45:48;;;;;;;11.90;8.23;;;23.60;60.40;;;;;;5019994;28;20457;-74
2023/10/11 03:48:20;;;;;;;11.30;8.33;;;23.60;60.30;;;;;;5028396;28;20414;-74
2023/10/11 03:50:51;;;;;;;11.93;8.43;;;23.60;60.40;;;;;;5023835;28;20434;-74
2023/10/11 03:53:20;;;;;;;15.27;9.00;;;23.60;60.40;;;;;;5020408;28;20441;-74
2023/10/11 03:55:49;;;;;;;15.43;10.30;;;23.50;60.20;;;;;;5031490;28;20448;-74
2023/10/11 03:58:32;;;;;;;12.63;8.87;;;23.50;60.30;;;;;;5020998;28;20451;-74
2023/10/11 04:01:08;;;;;;;13.40;9.00;;;23.50;60.20;;;;;;5032665;28;20508;-74
2023/10/11 04:03:38;;;;;;;13.63;9.57;;;23.50;60.30;;;;;;5026985;28;20546;-74
2023/10/11 04:06:13;;;;;;;15.80;9.07;;;23.50;60.30;;;;;;5027417;28;20446;-74
2023/10/11 04:08:43;;;;;;;17.43;10.43;;;23.50;60.20;;;;;;5024139;28;20448;-74
2023/10/11 04:11:18;;;;;;;18.47;10.30;;;23.50;60.30;;;;;;5023418;28;20451;-75
2023/10/11 04:13:50;;;;;;;12.70;9.23;;;23.50;60.30;;;;;;5027670;28;20453;-75
2023/10/11 04:16:18;;;;;;;14.80;10.43;;;23.50;60.20;;;;;;5026950;28;20519;-75
2023/10/11 04:18:47;;;;;;;15.63;10.07;;;23.50;60.30;;;;;;5027268;28;20489;-75
2023/10/11 04:21:54;;;;;;;17.10;10.37;;;23.50;60.30;;;;;;5035384;28;20930;-75
2023/10/11 04:24:19;;;;;;;13.10;9.80;;;23.50;60.30;;;;;;5020400;28;20466;-75
2023/10/11 04:26:54;;;;;;;14.37;9.83;;;23.40;60.40;;;;;;5023398;28;20519;-74
2023/10/11 04:29:25;;;;;;;14.43;9.33;;;23.40;60.20;;;;;;5024027;28;20443;-75
2023/10/11 04:32:09;;;;;;;15.20;10.37;;;23.40;60.20;;;;;;5032870;28;20509;-75
2023/10/11 04:34:47;;;;;;;15.37;10.13;;;23.40;60.60;;;;;;5021272;28;20474;-75
2023/10/11 04:37:27;;;;;;;15.83;9.73;;;23.40;60.30;;;;;;5027106;28;20451;-74
2023/10/11 04:40:14;;;;;;;15.33;9.30;;;23.40;60.30;;;;;;5023552;28;20457;-75
2023/10/11 04:42:43;;;;;;;15.77;9.40;;;23.40;60.30;;;;;;5029815;28;20895;-74
2023/10/11 04:45:28;;;;;;;13.23;9.43;;;23.40;60.40;;;;;;5025385;28;20498;-75
2023/10/11 04:48:15;;;;;;;14.23;9.90;;;23.40;60.30;;;;;;5015959;28;20808;-74
2023/10/11 04:50:47;;;;;;;12.23;9.00;;;23.40;60.40;;;;;;5029898;28;20443;-74
2023/10/11 04:53:19;;;;;;;16.60;9.30;;;23.40;60.30;;;;;;5034334;28;20459;-73
2023/10/11 04:55:59;;;;;;;11.60;8.70;;;23.40;60.30;;;;;;5021897;28;20436;-75
2023/10/11 04:58:41;;;;;;;12.87;10.00;;;23.40;60.40;;;;;;5026139;28;20443;-74
2023/10/11 05:01:11;;;;;;;13.63;9.67;;;23.40;60.40;;;;;;5027521;28;20939;-74
2023/10/11 05:03:40;;;;;;;13.73;9.53;;;23.30;60.30;;;;;;5030225;28;20496;-74
2023/10/11 05:06:30;;;;;;;13.83;9.60;;;23.30;60.20;;;;;;5029973;28;20545;-74
2023/10/11 05:09:12;;;;;;;15.23;10.17;;;23.30;60.30;;;;;;5027380;28;21080;-74
2023/10/11 05:11:43;;;;;;;14.60;9.40;;;23.30;60.30;;;;;;5025922;28;20452;-75
2023/10/11 05:16:59;;;;;;;12.87;9.23;;;23.30;60.30;;;;;;5047605;28;20398;-76
2023/10/11 05:19:28;;;;;;;13.83;9.23;;;23.30;60.30;;;;;;5047705;28;20820;-76
2023/10/11 05:21:55;;;;;;;12.50;8.87;;;23.30;60.20;;;;;;5054309;28;20426;-76
2023/10/11 05:24:44;;;;;;;12.33;8.93;;;23.30;60.20;;;;;;5054270;28;20827;-76
2023/10/11 05:27:12;;;;;;;12.67;9.20;;;23.30;60.20;;;;;;5047056;28;20418;-76
2023/10/11 05:30:06;;;;;;;12.30;9.13;;;23.30;60.20;;;;;;5052981;28;20941;-76
2023/10/11 05:32:41;;;;;;;12.83;8.73;;;23.30;60.20;;;;;;5053878;28;20446;-76
2023/10/11 05:35:19;;;;;;;13.87;9.20;;;23.30;60.20;;;;;;5048555;28;20433;-76
2023/10/11 05:51:39;;;;;;;13.20;9.33;;;23.20;60.20;;;;;;5053771;28;20470;-76
2023/10/11 05:54:08;;;;;;;13.90;9.10;;;23.20;60.30;;;;;;5053298;28;20463;-77
2023/10/11 05:56:38;;;;;;;13.20;8.20;;;23.30;60.30;;;;;;5053478;28;20438;-76
2023/10/11 05:59:10;;;;;;;13.70;7.83;;;23.30;60.20;;;;;;5053447;28;20420;-76
2023/10/11 06:01:38;;;;;;;11.90;8.80;;;23.30;60.20;;;;;;5050967;28;20438;-76
2023/10/11 06:04:08;;;;;;;10.70;8.00;;;23.30;60.10;;;;;;5053168;28;20863;-77
2023/10/11 06:06:39;;;;;;;12.23;8.50;;;23.30;60.10;;;;;;5053098;28;20459;-76
2023/10/11 06:09:08;;;;;;;13.67;9.27;;;23.30;60.20;;;;;;5053078;28;20416;-77
2023/10/11 06:11:43;;;;;;;12.17;7.70;;;23.30;60.10;;;;;;5053194;28;20432;-76
2023/10/11 06:14:13;;;;;;;10.07;7.97;;;23.30;60.10;;;;;;5053019;28;20872;-76
2023/10/11 06:16:43;;;;;;;11.10;8.00;;;23.30;59.90;;;;;;5044631;28;20394;-76
2023/10/11 06:19:19;;;;;;;10.23;8.10;;;23.30;60.00;;;;;;5048568;28;20456;-76
2023/10/11 06:21:59;;;;;;;9.27;7.37;;;23.30;60.00;;;;;;5052767;28;20409;-76
2023/10/11 06:24:30;;;;;;;10.23;8.40;;;23.40;60.00;;;;;;5052552;28;20429;-76
2023/10/11 06:27:11;;;;;;;10.17;8.00;;;23.40;60.00;;;;;;5052493;28;20473;-76
2023/10/11 06:29:45;;;;;;;11.20;8.80;;;23.40;59.80;;;;;;5052741;28;20444;-77
2023/10/11 06:32:13;;;;;;;9.60;7.43;;;23.40;59.90;;;;;;5053066;28;20441;-77
2023/10/11 06:34:50;;;;;;;11.43;8.13;;;23.40;59.60;;;;;;5045967;28;20513;-76
2023/10/11 06:37:19;;;;;;;9.87;7.20;;;23.50;59.80;;;;;;5052758;28;20434;-76
2023/10/11 06:42:33;;;;;;;11.37;8.50;;;23.50;59.70;;;;;;5051518;28;20454;-77
2023/10/11 06:45:01;;;;;;;14.47;8.70;;;23.50;59.70;;;;;;5053208;28;20429;-76
2023/10/11 06:47:33;;;;;;;11.43;8.23;;;23.50;59.70;;;;;;5047477;28;20536;-76
2023/10/11 06:50:11;;;;;;;10.30;7.80;;;23.50;59.70;;;;;;5053209;28;20441;-77
2023/10/11 06:52:43;;;;;;;11.53;7.90;;;23.50;59.60;;;;;;5048459;28;20516;-77
2023/10/11 06:55:16;;;;;;;10.63;7.67;;;23.50;59.60;;;;;;5047290;28;20515;-77
2023/10/11 06:57:50;;;;;;;11.80;7.63;;;23.60;59.60;;;;;;5052600;28;20458;-77
2023/10/11 07:00:24;;;;;;;10.90;7.40;;;23.60;59.50;;;;;;5050059;28;20415;-76
2023/10/11 07:03:05;;;;;;;10.93;8.13;;;23.60;59.60;;;;;;5045107;28;20434;-76
2023/10/11 07:05:40;;;;;;;10.03;7.50;;;23.70;59.60;;;;;;5051902;28;20421;-77
2023/10/11 07:08:09;;;;;;;11.27;7.83;;;23.70;59.30;;;;;;5052624;28;20430;-76
2023/10/11 07:10:45;;;;;;;9.87;7.37;;;23.70;59.50;;;;;;5052265;28;20443;-76
2023/10/11 07:13:14;;;;;;;13.03;7.80;;;23.70;59.30;;;;;;5052081;28;20405;-76
2023/10/11 07:15:43;;;;;;;12.90;7.73;;;23.80;59.50;;;;;;5047548;28;20447;-76
2023/10/11 07:18:13;;;;;;;11.57;8.10;;;23.80;59.40;;;;;;5052002;28;20501;-76
2023/10/11 07:20:49;;;;;;;12.70;7.70;;;23.80;59.20;;;;;;5045113;28;20501;-77
2023/10/11 07:23:19;;;;;;;11.23;7.60;;;23.80;59.10;;;;;;5047277;28;20475;-77
2023/10/11 07:25:49;;;;;;;12.43;7.73;;;23.90;59.20;;;;;;5052115;28;20424;-77
2023/10/11 07:28:35;;;;;;;11.23;7.53;;;23.90;59.20;;;;;;5052084;28;20424;-76
2023/10/11 07:31:04;;;;;;;11.10;7.77;;;23.90;59.20;;;;;;5051775;28;20421;-76
2023/10/11 07:33:31;;;;;;;12.90;8.07;;;23.90;59.20;;;;;;5043561;28;20494;-77
2023/10/11 07:36:01;;;;;;;8.13;6.80;;;23.90;59.10;;;;;;5052144;28;20441;-77
2023/10/11 07:38:34;;;;;;;10.17;6.70;;;23.90;59.70;;;;;;5047899;28;20453;-76
2023/10/11 07:41:04;;;;;;;11.57;7.70;;;23.90;59.10;;;;;;5051534;28;20473;-77
2023/10/11 07:43:33;;;;;;;10.47;6.97;;;24.00;59.10;;;;;;5050902;28;20456;-76
2023/10/11 07:46:04;;;;;;;10.27;7.00;;;24.00;59.10;;;;;;5051418;28;20448;-78
2023/10/11 07:48:32;;;;;;;10.20;7.53;;;24.00;59.20;;;;;;5050979;28;20949;-76
2023/10/11 07:51:09;;;;;;;9.13;7.00;;;24.10;59.20;;;;;;5051770;28;20417;-76
2023/10/11 07:53:40;;;;;;;9.50;7.27;;;24.10;59.10;;;;;;5051267;28;20994;-76
2023/10/11 07:56:08;;;;;;;9.37;7.20;;;24.10;59.10;;;;;;5051416;28;20480;-77
2023/10/11 07:58:44;;;;;;;10.00;7.43;;;24.20;59.10;;;;;;5051180;28;20450;-76
2023/10/11 08:01:24;;;;;;;9.10;6.87;;;24.20;59.10;;;;;;5051189;28;20507;-76
2023/10/11 08:03:53;;;;;;;9.80;6.83;;;24.20;59.20;;;;;;5048927;28;20462;-76
2023/10/11 08:06:27;;;;;;;9.23;6.97;;;24.20;59.00;;;;;;5051889;28;20437;-76
2023/10/11 08:08:59;;;;;;;9.60;6.73;;;24.20;59.10;;;;;;5043431;28;20413;-76
2023/10/11 08:11:36;;;;;;;6.87;6.17;;;24.20;59.00;;;;;;5050485;28;21011;-76
2023/10/11 08:14:13;;;;;;;9.47;6.47;;;24.20;59.00;;;;;;5047424;28;20498;-76
2023/10/11 08:16:42;;;;;;;12.90;7.27;;;24.20;58.90;;;;;;5052888;28;20446;-75
2023/10/11 08:19:11;;;;;;;7.60;6.50;;;24.20;59.10;;;;;;5052417;28;20873;-76
2023/10/11 08:21:40;;;;;;;10.20;6.67;;;24.20;59.10;;;;;;5050871;28;20439;-76
2023/10/11 08:24:15;;;;;;;8.27;6.67;;;24.30;59.20;;;;;;5050246;28;20435;-76
2023/10/11 08:26:45;;;;;;;13.60;7.50;;;24.20;59.20;;;;;;5050059;28;20444;-77
2023/10/11 08:29:27;;;;;;;10.10;6.60;;;24.20;59.10;;;;;;5046157;28;20459;-76
2023/10/11 08:31:59;;;;;;;10.90;7.10;;;24.20;59.10;;;;;;5043226;28;20424;-77
2023/10/11 08:34:27;;;;;;;13.03;7.10;;;24.30;59.20;;;;;;5051807;28;20528;-76
2023/10/11 08:36:57;;;;;;;9.33;7.20;;;24.30;59.30;;;;;;5044241;28;20571;-78
2023/10/11 08:39:35;;;;;;;10.60;6.33;;;24.30;59.30;;;;;;5051786;28;20481;-77
2023/10/11 08:42:09;;;;;;;10.27;7.20;;;24.30;59.30;;;;;;5044467;28;20507;-77
2023/10/11 08:44:38;;;;;;;9.37;6.77;;;24.30;59.30;;;;;;5050421;28;20558;-76
2023/10/11 08:47:06;;;;;;;10.60;6.90;;;24.20;59.30;;;;;;5054903;28;20441;-77
2023/10/11 08:49:35;;;;;;;7.50;6.37;;;24.30;59.40;;;;;;5054848;28;20451;-77
2023/10/11 08:52:04;;;;;;;10.53;7.13;;;24.30;59.30;;;;;;5055390;28;20406;-77
2023/10/11 08:54:36;;;;;;;9.47;6.93;;;24.30;59.30;;;;;;5054659;28;20483;-76
2023/10/11 08:57:04;;;;;;;8.30;6.47;;;24.30;59.30;;;;;;5054484;28;20443;-77
2023/10/11 08:59:39;;;;;;;8.57;6.37;;;24.40;59.30;;;;;;5054784;28;20471;-76
2023/10/11 09:02:08;;;;;;;10.27;7.00;;;24.40;59.30;;;;;;5056067;28;20425;-77
2023/10/11 09:04:40;;;;;;;12.83;7.00;;;24.40;59.30;;;;;;5055425;28;20468;-76
2023/10/11 09:07:15;;;;;;;8.13;6.13;;;24.40;59.30;;;;;;5054733;28;20444;-77
2023/10/11 09:09:46;;;;;;;8.30;6.33;;;24.40;59.20;;;;;;5052003;28;20532;-77
2023/10/11 09:12:27;;;;;;;10.37;6.67;;;24.50;59.10;;;;;;5056073;28;20428;-77
2023/10/11 09:14:58;;;;;;;9.03;7.30;;;24.40;59.30;;;;;;5054393;28;20481;-76
2023/10/11 09:17:27;;;;;;;9.80;7.10;;;24.40;59.30;;;;;;5055289;28;20516;-77
2023/10/11 09:19:58;;;;;;;10.17;6.70;;;24.40;59.20;;;;;;5054337;28;20423;-76
2023/10/11 09:22:28;;;;;;;9.67;6.47;;;24.40;59.20;;;;;;5055163;28;20447;-76
2023/10/11 09:25:07;;;;;;;10.23;6.23;;;24.40;59.50;;;;;;5046465;28;20445;-77
2023/10/11 09:27:48;;;;;;;7.40;6.03;;;24.40;59.40;;;;;;5051217;28;20536;-76
2023/10/11 09:30:20;;;;;;;12.43;6.77;;;24.50;59.20;;;;;;5054274;28;20546;-76
2023/10/11 09:32:52;;;;;;;15.30;6.80;;;24.50;59.40;;;;;;5046341;28;20458;-74
2023/10/11 09:35:27;;;;;;;10.10;6.33;;;24.40;59.60;;;;;;5049331;28;20810;-76
2023/10/11 09:37:58;;;;;;;11.03;6.53;;;24.40;59.50;;;;;;5054667;28;20421;-76
2023/10/11 09:40:30;;;;;;;10.40;6.70;;;24.40;59.50;;;;;;5054877;28;20421;-76
2023/10/11 09:43:04;;;;;;;9.63;7.20;;;24.40;59.60;;;;;;5046597;28;20447;-75
2023/10/11 09:45:41;;;;;;;8.80;6.33;;;24.40;59.60;;;;;;5054850;28;20449;-76
2023/10/11 09:48:12;;;;;;;8.27;6.83;;;24.40;59.70;;;;;;5054160;28;20466;-76
2023/10/11 09:50:41;;;;;;;13.73;6.77;;;24.40;59.70;;;;;;5054697;28;20422;-76
2023/10/11 09:53:11;;;;;;;10.97;6.80;;;24.40;59.80;;;;;;5053722;28;20442;-76
2023/10/11 09:55:44;;;;;;;15.23;6.50;;;24.40;59.80;;;;;;5052355;28;20444;-77
2023/10/11 09:58:17;;;;;;;9.60;6.37;;;24.40;59.90;;;;;;5048244;28;20515;-77
2023/10/11 10:00:56;;;;;;;19.57;11.87;;;24.40;59.90;;;;;;5048106;28;20456;-78
2023/10/11 10:03:25;;;;;;;23.23;13.40;;;24.20;62.60;;;;;;5059502;28;20441;-78
2023/10/11 10:06:06;;;;;;;31.17;15.67;;;23.70;66.00;;;;;;5054577;28;20520;-78
2023/10/11 10:08:35;;;;;;;24.00;14.10;;;23.20;68.40;;;;;;5056304;28;20481;-77
2023/10/11 10:11:03;;;;;;;28.07;13.63;;;22.90;70.50;;;;;;5059243;28;20473;-79
2023/10/11 10:13:41;;;;;;;28.13;15.87;;;22.90;72.20;;;;;;5059194;28;20437;-79
2023/10/11 10:16:13;;;;;;;33.23;15.90;;;22.70;72.30;;;;;;5063367;28;20454;-79
2023/10/11 10:18:46;;;;;;;25.83;15.70;;;22.50;74.90;;;;;;5055421;28;20954;-79
2023/10/11 10:21:17;;;;;;;31.00;16.30;;;22.20;76.40;;;;;;5063274;28;20444;-78
2023/10/11 10:23:47;;;;;;;26.93;15.57;;;22.00;79.50;;;;;;5064081;28;20480;-79
2023/10/11 10:26:45;;;;;;;34.93;17.10;;;21.80;81.60;;;;;;5056592;28;20497;-78
2023/10/11 10:29:13;;;;;;;20.83;13.00;;;21.80;83.90;;;;;;5047490;28;20569;-76
2023/10/11 10:32:03;;;;;;;19.40;12.37;;;22.30;86.90;;;;;;5053481;28;20441;-76
2023/10/11 10:34:31;;;;;;;24.87;11.37;;;22.90;82.50;;;;;;5053178;28;20463;-76
2023/10/11 10:37:05;;;;;;;20.23;11.07;;;23.20;80.30;;;;;;5044329;28;20534;-76
2023/10/11 10:39:46;;;;;;;15.87;10.57;;;23.40;78.30;;;;;;5049353;28;20524;-76
2023/10/11 10:42:16;;;;;;;14.87;9.87;;;23.60;76.70;;;;;;5052667;28;20421;-76
2023/10/11 10:44:51;;;;;;;22.90;9.93;;;23.70;75.60;;;;;;5052695;28;20552;-76
2023/10/11 10:47:31;;;;;;;19.47;9.77;;;23.80;74.50;;;;;;5053817;28;20453;-77
2023/10/11 10:50:09;;;;;;;15.47;9.90;;;23.90;73.70;;;;;;5047023;28;20434;-76
2023/10/11 10:52:39;;;;;;;18.13;10.60;;;24.00;73.20;;;;;;5053328;28;20417;-75
2023/10/11 10:55:10;;;;;;;15.30;9.67;;;24.00;72.40;;;;;;5052753;28;20437;-76
2023/10/11 10:57:38;;;;;;;20.60;9.97;;;24.10;71.90;;;;;;5052831;28;20425;-76
2023/10/11 11:00:07;;;;;;;11.53;8.73;;;24.10;71.50;;;;;;5053402;28;20443;-75
2023/10/11 11:02:36;;;;;;;17.90;9.20;;;24.20;70.90;;;;;;5052479;28;20421;-75
2023/10/11 11:05:13;;;;;;;12.00;9.07;;;24.20;70.60;;;;;;5051829;28;20460;-75
2023/10/11 11:07:47;;;;;;;14.53;9.70;;;24.30;70.40;;;;;;5051550;28;20500;-75
2023/10/11 11:10:20;;;;;;;16.40;9.20;;;24.30;70.00;;;;;;5046039;28;20529;-76
2023/10/11 11:12:48;;;;;;;14.20;9.20;;;24.30;69.70;;;;;;5051971;28;20514;-76
2023/10/11 11:15:20;;;;;;;11.80;8.37;;;24.30;69.50;;;;;;5051658;28;20440;-76
2023/10/11 11:17:50;;;;;;;16.50;9.43;;;24.40;69.30;;;;;;5049431;28;20421;-75
2023/10/11 11:20:31;;;;;;;11.47;8.50;;;24.40;69.10;;;;;;5059770;28;20788;-76
2023/10/11 11:22:59;;;;;;;14.13;8.37;;;24.40;69.00;;;;;;5061897;28;20453;-78
2023/10/11 11:25:28;;;;;;;14.13;9.20;;;24.40;69.00;;;;;;5061437;28;20421;-77
2023/10/11 11:28:06;;;;;;;13.37;8.63;;;24.40;68.90;;;;;;5054720;28;20441;-77
2023/10/11 11:30:33;;;;;;;14.07;8.43;;;24.40;68.60;;;;;;5053085;28;20446;-78
2023/10/11 11:33:13;;;;;;;13.33;8.60;;;24.50;68.70;;;;;;5052266;28;20424;-79
2023/10/11 11:35:44;;;;;;;12.17;8.50;;;24.50;68.40;;;;;;5055425;28;20424;-78
2023/10/11 11:38:20;;;;;;;14.57;9.03;;;24.60;68.10;;;;;;5052849;28;20443;-78
2023/10/11 11:40:51;;;;;;;10.90;8.30;;;24.60;68.00;;;;;;5050086;28;20454;-79
2023/10/11 11:43:20;;;;;;;9.67;8.33;;;24.70;67.70;;;;;;5058885;28;20452;-78
2023/10/11 11:45:56;;;;;;;12.40;8.10;;;24.60;67.50;;;;;;5059317;28;20498;-78
2023/10/11 11:48:25;;;;;;;9.57;7.67;;;24.70;67.80;;;;;;5050642;28;20452;-78
2023/10/11 11:50:56;;;;;;;11.67;8.40;;;24.80;67.20;;;;;;5053256;28;20413;-78
2023/10/11 11:53:25;;;;;;;11.10;7.50;;;24.90;67.40;;;;;;5053296;28;20464;-76
2023/10/11 11:55:54;;;;;;;12.87;8.27;;;25.00;67.90;;;;;;5052841;28;20450;-75
2023/10/11 11:58:21;;;;;;;11.83;7.77;;;25.20;66.90;;;;;;5052481;28;20437;-76
2023/10/11 12:01:08;;;;;;;12.83;8.37;;;25.60;67.00;;;;;;5051832;28;20426;-76
2023/10/11 12:03:36;;;;;;;15.13;7.60;;;26.10;65.50;;;;;;5052091;28;20457;-77
2023/10/11 12:06:21;;;;;;;9.20;7.30;;;27.40;64.50;;;;;;5051629;28;20449;-76
2023/10/11 12:08:57;;;;;;;10.00;7.13;;;27.50;60.50;;;;;;5051424;28;20459;-78
2023/10/11 12:11:29;;;;;;;9.63;7.20;;;27.40;59.40;;;;;;5051760;28;20515;-78
2023/10/11 12:13:58;;;;;;;10.97;7.70;;;27.10;59.70;;;;;;5050420;28;20481;-77
2023/10/11 12:16:26;;;;;;;9.47;7.77;;;26.90;60.40;;;;;;5046028;28;20501;-76
2023/10/11 12:18:58;;;;;;;10.87;8.10;;;26.70;60.90;;;;;;5053773;28;20465;-77
2023/10/11 12:21:28;;;;;;;8.73;6.83;;;26.60;61.60;;;;;;5055974;28;20424;-77
2023/10/11 12:23:57;;;;;;;9.27;6.83;;;26.30;61.80;;;;;;5056694;28;20473;-78
2023/10/11 12:26:27;;;;;;;11.63;7.40;;;26.20;62.30;;;;;;5060655;28;20458;-78
2023/10/11 12:28:58;;;;;;;9.80;7.23;;;26.10;62.60;;;;;;5057961;28;20433;-78
2023/10/11 12:31:28;;;;;;;11.07;8.10;;;26.00;63.90;;;;;;5059453;28;20447;-76
2023/10/11 12:33:56;;;;;;;11.43;7.87;;;25.90;63.40;;;;;;5059747;28;20533;-77
2023/10/11 12:36:28;;;;;;;8.60;6.60;;;25.90;63.70;;;;;;5059172;28;20435;-78
2023/10/11 12:38:57;;;;;;;8.67;7.20;;;25.90;64.00;;;;;;5055581;28;20532;-77
2023/10/11 12:41:27;;;;;;;8.23;6.87;;;25.80;63.70;;;;;;5052956;28;20512;-77
2023/10/11 12:43:55;;;;;;;10.63;7.63;;;25.80;64.10;;;;;;5056712;28;20509;-76
2023/10/11 12:46:23;;;;;;;10.07;7.03;;;25.90;64.30;;;;;;5055523;28;20504;-76
2023/10/11 12:48:54;;;;;;;8.80;7.13;;;25.90;64.00;;;;;;5054891;28;20561;-73
2023/10/11 12:51:24;;;;;;;10.80;7.83;;;25.90;63.50;;;;;;5055191;28;20453;-74
2023/10/11 12:53:54;;;;;;;9.93;7.00;;;25.80;63.50;;;;;;5055488;28;20504;-76
2023/10/11 12:56:24;;;;;;;10.00;7.27;;;25.80;64.10;;;;;;5049205;28;20513;-76
2023/10/11 12:58:54;;;;;;;12.73;6.80;;;25.80;63.90;;;;;;5055048;28;20468;-76
2023/10/11 13:01:36;;;;;;;11.90;7.00;;;25.80;64.00;;;;;;5054865;28;20444;-76
2023/10/11 13:04:10;;;;;;;8.57;6.87;;;25.80;63.70;;;;;;5052164;28;20440;-77
2023/10/11 13:06:43;;;;;;;11.00;7.20;;;25.80;64.20;;;;;;5055133;28;20417;-77
2023/10/11 13:09:14;;;;;;;7.67;6.30;;;25.80;63.90;;;;;;5047476;28;20487;-77
2023/10/11 13:11:44;;;;;;;8.50;7.40;;;25.90;63.80;;;;;;5054649;28;20409;-75
2023/10/11 13:14:19;;;;;;;9.70;6.90;;;25.80;63.70;;;;;;5049810;28;20467;-78
2023/10/11 13:16:49;;;;;;;9.50;7.50;;;25.80;63.60;;;;;;5042576;28;20442;-78
2023/10/11 13:19:18;;;;;;;9.90;6.60;;;25.90;64.20;;;;;;5046821;28;20405;-77
2023/10/11 13:21:47;;;;;;;9.70;6.33;;;26.00;63.90;;;;;;5048849;28;20536;-78
2023/10/11 13:24:21;;;;;;;8.00;6.93;;;26.00;63.40;;;;;;5046235;28;20465;-77
2023/10/11 13:26:51;;;;;;;12.10;6.80;;;26.00;63.10;;;;;;5051468;28;20474;-76